Time;durP1;ratioP1;P1;durP2;ratioP2;P2;SDS_P1;SDS_P2;PMS_P1;PMS_P2;Temp;Humidity;BMP_temperature;BMP_pressure;BME280_temperature;BME280_humidity;BME280_pressure;Samples;Min_cycle;Max_cycle;Signal;HPM_P1;HPM_P2
2022/11/14 00:00:00;;;;;;;4.03;2.55;;;;;;;;;;5056390;28;20040;-44
2022/11/14 00:02:26;;;;;;;3.40;2.70;;;;;;;;;;5055822;28;20147;-44
2022/11/14 00:04:52;;;;;;;4.22;3.00;;;;;;;;;;5051204;28;20029;-44
2022/11/14 00:07:18;;;;;;;2.97;2.40;;;;;;;;;;5057494;28;20028;-45
2022/11/14 00:09:44;;;;;;;3.35;2.50;;;;;;;;;;5057183;28;20028;-44
2022/11/14 00:12:10;;;;;;;3.58;2.83;;;;;;;;;;5053077;28;20389;-44
2022/11/14 00:14:36;;;;;;;2.95;2.10;;;;;;;;;;5060999;28;20478;-44
2022/11/14 00:17:03;;;;;;;2.53;2.03;;;;;;;;;;5057744;28;20025;-44
2022/11/14 00:19:29;;;;;;;4.60;2.42;;;;;;;;;;5056235;28;20049;-50
2022/11/14 00:21:55;;;;;;;2.58;2.10;;;;;;;;;;5063662;28;20074;-44
2022/11/14 00:24:21;;;;;;;2.92;2.30;;;;;;;;;;5057513;28;20021;-44
2022/11/14 00:26:47;;;;;;;2.95;2.30;;;;;;;;;;5061474;28;20517;-46
2022/11/14 00:29:16;;;;;;;3.92;2.20;;;;;;;;;;5060861;28;20029;-44
2022/11/14 00:31:42;;;;;;;2.67;2.38;;;;;;;;;;5041095;28;20031;-44
2022/11/14 00:34:08;;;;;;;4.18;2.58;;;;;;;;;;5062588;28;20529;-44
2022/11/14 00:36:34;;;;;;;3.08;2.38;;;;;;;;;;5054435;28;20037;-44
2022/11/14 00:39:00;;;;;;;2.53;2.20;;;;;;;;;;5061854;28;20108;-44
2022/11/14 00:41:26;;;;;;;2.17;1.95;;;;;;;;;;5058926;28;20116;-45
2022/11/14 00:43:52;;;;;;;2.67;2.35;;;;;;;;;;5060350;28;20028;-44
2022/11/14 00:46:18;;;;;;;3.05;1.98;;;;;;;;;;5058722;28;20028;-44
2022/11/14 00:48:45;;;;;;;3.00;2.20;;;;;;;;;;5063108;28;20032;-44
2022/11/14 00:51:11;;;;;;;2.95;2.40;;;;;;;;;;5057327;28;20021;-44
2022/11/14 00:53:36;;;;;;;3.13;2.20;;;;;;;;;;5060512;28;20391;-44
2022/11/14 00:56:03;;;;;;;2.30;2.10;;;;;;;;;;5054368;28;20029;-44
2022/11/14 00:58:28;;;;;;;2.90;2.00;;;;;;;;;;5053974;28;20052;-49
2022/11/14 01:00:55;;;;;;;3.13;2.28;;;;;;;;;;5053995;28;20021;-44
2022/11/14 01:03:21;;;;;;;2.85;1.90;;;;;;;;;;5054436;28;20053;-44
2022/11/14 01:05:48;;;;;;;3.22;1.80;;;;;;;;;;5053506;28;20264;-46
2022/11/14 01:08:16;;;;;;;2.67;2.00;;;;;;;;;;5054463;28;20478;-44
2022/11/14 01:10:43;;;;;;;3.17;2.13;;;;;;;;;;5053527;28;20028;-44
2022/11/14 01:13:09;;;;;;;3.00;2.10;;;;;;;;;;5054240;28;20462;-44
2022/11/14 01:15:45;;;;;;;2.08;1.75;;;;;;;;;;5053077;28;20048;-44
2022/11/14 01:18:13;;;;;;;2.53;2.33;;;;;;;;;;5054458;28;20032;-44
2022/11/14 01:20:40;;;;;;;2.72;2.08;;;;;;;;;;5051417;28;20041;-44
2022/11/14 01:23:06;;;;;;;2.65;1.95;;;;;;;;;;5041495;28;20029;-43
2022/11/14 01:25:33;;;;;;;2.55;1.77;;;;;;;;;;5043425;28;20108;-44
2022/11/14 01:27:59;;;;;;;3.17;2.10;;;;;;;;;;5053797;28;20539;-43
2022/11/14 01:30:25;;;;;;;2.95;2.03;;;;;;;;;;5053506;28;20104;-43
2022/11/14 01:32:51;;;;;;;2.17;1.83;;;;;;;;;;5053335;28;20501;-44
2022/11/14 01:35:17;;;;;;;2.03;1.73;;;;;;;;;;5053389;28;20053;-44
2022/11/14 01:37:43;;;;;;;2.38;1.95;;;;;;;;;;5050504;28;20407;-44
2022/11/14 01:40:09;;;;;;;2.33;1.70;;;;;;;;;;5053580;28;20163;-44
2022/11/14 01:42:35;;;;;;;2.85;1.98;;;;;;;;;;5036342;28;20060;-44
2022/11/14 01:45:01;;;;;;;3.13;2.03;;;;;;;;;;5052684;28;20021;-44
2022/11/14 01:47:30;;;;;;;2.15;1.60;;;;;;;;;;5053860;28;20035;-47
2022/11/14 01:49:58;;;;;;;2.95;2.08;;;;;;;;;;5041445;28;20018;-44
2022/11/14 01:52:26;;;;;;;2.83;2.00;;;;;;;;;;5037549;28;20026;-44
2022/11/14 01:54:53;;;;;;;1.90;1.60;;;;;;;;;;5037766;28;20074;-44
2022/11/14 01:57:24;;;;;;;2.88;2.40;;;;;;;;;;5052082;28;20020;-44
2022/11/14 01:59:53;;;;;;;2.58;2.38;;;;;;;;;;5045601;28;20108;-44
2022/11/14 02:02:23;;;;;;;3.20;1.85;;;;;;;;;;5053437;28;20053;-44
2022/11/14 02:05:02;;;;;;;2.47;1.95;;;;;;;;;;5052091;28;20025;-44
2022/11/14 02:07:29;;;;;;;2.40;1.83;;;;;;;;;;5052512;28;20025;-50
2022/11/14 02:09:55;;;;;;;2.00;1.60;;;;;;;;;;5052211;28;20029;-44
2022/11/14 02:12:22;;;;;;;2.58;1.70;;;;;;;;;;5053088;28;20079;-44
2022/11/14 02:14:50;;;;;;;2.53;1.73;;;;;;;;;;5046466;28;20243;-44
2022/11/14 02:17:17;;;;;;;2.10;1.60;;;;;;;;;;5050257;28;20068;-45
2022/11/14 02:19:44;;;;;;;2.97;2.33;;;;;;;;;;5051569;28;20486;-44
2022/11/14 02:22:10;;;;;;;1.50;1.40;;;;;;;;;;5039574;28;20014;-44
2022/11/14 02:24:36;;;;;;;1.83;1.65;;;;;;;;;;5051314;28;20421;-45
2022/11/14 02:27:03;;;;;;;2.58;2.00;;;;;;;;;;5052399;28;20025;-44
2022/11/14 02:29:31;;;;;;;2.40;1.90;;;;;;;;;;5052875;28;20367;-49
2022/11/14 02:31:57;;;;;;;1.70;1.42;;;;;;;;;;5046057;28;20049;-44
2022/11/14 02:34:23;;;;;;;3.08;2.15;;;;;;;;;;5050495;28;20386;-44
2022/11/14 02:36:49;;;;;;;2.35;1.88;;;;;;;;;;5033703;28;20017;-44
2022/11/14 02:39:15;;;;;;;2.30;1.63;;;;;;;;;;5052863;28;20459;-44
2022/11/14 02:41:41;;;;;;;2.10;1.70;;;;;;;;;;5051730;28;20036;-44
2022/11/14 02:44:06;;;;;;;2.55;1.90;;;;;;;;;;5052431;28;20037;-44
2022/11/14 02:46:32;;;;;;;1.83;1.60;;;;;;;;;;5051222;28;20036;-44
2022/11/14 02:48:58;;;;;;;2.15;1.70;;;;;;;;;;5045913;28;20022;-45
2022/11/14 02:51:24;;;;;;;2.22;1.88;;;;;;;;;;5040476;28;20017;-44
2022/11/14 02:53:50;;;;;;;2.55;1.90;;;;;;;;;;5044701;28;20200;-44
2022/11/14 02:56:17;;;;;;;2.10;1.60;;;;;;;;;;5043568;28;20037;-44
2022/11/14 02:58:43;;;;;;;2.15;1.92;;;;;;;;;;5051675;28;20032;-44
2022/11/14 03:01:09;;;;;;;1.85;1.42;;;;;;;;;;5051531;28;20382;-44
2022/11/14 03:03:34;;;;;;;2.05;1.67;;;;;;;;;;5051586;28;20092;-44
2022/11/14 03:06:01;;;;;;;2.10;1.85;;;;;;;;;;5045035;28;20026;-44
2022/11/14 03:08:27;;;;;;;1.88;1.50;;;;;;;;;;5050711;28;20029;-48
2022/11/14 03:10:54;;;;;;;1.92;1.48;;;;;;;;;;5051326;28;20021;-44
2022/11/14 03:13:20;;;;;;;1.92;1.60;;;;;;;;;;5051792;28;20561;-45
2022/11/14 03:15:46;;;;;;;2.55;1.75;;;;;;;;;;5040458;28;20053;-44
2022/11/14 03:18:12;;;;;;;2.83;1.80;;;;;;;;;;5048544;28;20449;-44
2022/11/14 03:20:38;;;;;;;2.75;2.08;;;;;;;;;;5049193;28;20052;-44
2022/11/14 03:23:05;;;;;;;2.25;1.90;;;;;;;;;;5031971;28;20031;-44
2022/11/14 03:25:31;;;;;;;2.20;1.95;;;;;;;;;;5041700;28;20048;-48
2022/11/14 03:27:57;;;;;;;1.80;1.70;;;;;;;;;;5051891;28;20501;-44
2022/11/14 03:30:23;;;;;;;3.97;1.63;;;;;;;;;;5051186;28;20099;-44
2022/11/14 03:32:49;;;;;;;1.50;1.20;;;;;;;;;;5051196;28;20048;-45
2022/11/14 03:35:15;;;;;;;2.00;1.75;;;;;;;;;;5051263;28;20056;-44
2022/11/14 03:37:41;;;;;;;1.88;1.48;;;;;;;;;;5051163;28;20025;-44
2022/11/14 03:40:07;;;;;;;1.65;1.52;;;;;;;;;;5043465;28;20033;-44
2022/11/14 03:42:34;;;;;;;1.70;1.20;;;;;;;;;;5050295;28;20053;-44
2022/11/14 03:45:00;;;;;;;1.85;1.60;;;;;;;;;;5051126;28;20023;-44
2022/11/14 03:47:25;;;;;;;1.90;1.48;;;;;;;;;;5033304;28;20021;-44
2022/11/14 03:49:51;;;;;;;2.17;1.98;;;;;;;;;;5050066;28;20845;-44
2022/11/14 03:52:17;;;;;;;1.88;1.67;;;;;;;;;;5033365;28;20025;-48
2022/11/14 03:54:43;;;;;;;2.45;1.80;;;;;;;;;;5032800;28;20036;-44
2022/11/14 03:57:09;;;;;;;1.52;1.42;;;;;;;;;;5043598;28;20348;-44
2022/11/14 03:59:35;;;;;;;2.20;1.70;;;;;;;;;;5041606;28;20083;-44
2022/11/14 04:02:01;;;;;;;1.80;1.42;;;;;;;;;;5051045;28;20033;-44
2022/11/14 04:04:27;;;;;;;2.00;1.50;;;;;;;;;;5051045;28;20029;-48
2022/11/14 04:06:53;;;;;;;1.60;1.48;;;;;;;;;;5050250;28;20013;-43
2022/11/14 04:09:19;;;;;;;2.50;1.40;;;;;;;;;;5051125;28;20028;-44
2022/11/14 04:11:45;;;;;;;1.80;1.50;;;;;;;;;;5050138;28;20021;-44
2022/11/14 04:14:11;;;;;;;1.90;1.38;;;;;;;;;;5043056;28;20037;-44
2022/11/14 04:16:37;;;;;;;1.90;1.63;;;;;;;;;;5035475;28;20071;-44
2022/11/14 04:19:03;;;;;;;2.17;1.58;;;;;;;;;;5050997;28;20068;-44
2022/11/14 04:21:29;;;;;;;2.03;1.65;;;;;;;;;;5050524;28;20119;-49
2022/11/14 04:23:55;;;;;;;1.48;1.38;;;;;;;;;;5050560;28;20021;-44
2022/11/14 04:26:21;;;;;;;1.70;1.40;;;;;;;;;;5050437;28;20017;-43
2022/11/14 04:28:47;;;;;;;1.90;1.70;;;;;;;;;;5050829;28;20119;-44
2022/11/14 04:31:13;;;;;;;2.03;1.40;;;;;;;;;;5041954;28;20422;-44
2022/11/14 04:33:39;;;;;;;1.70;1.27;;;;;;;;;;5042226;28;20029;-44
2022/11/14 04:36:05;;;;;;;1.20;1.10;;;;;;;;;;5050491;28;20071;-44
2022/11/14 04:38:31;;;;;;;1.83;1.50;;;;;;;;;;5050401;28;20438;-49
2022/11/14 04:40:57;;;;;;;2.70;1.40;;;;;;;;;;5050669;28;20055;-44
2022/11/14 04:43:23;;;;;;;1.40;1.23;;;;;;;;;;5051099;28;20021;-45
2022/11/14 04:45:49;;;;;;;1.98;1.75;;;;;;;;;;5049625;28;20040;-44
2022/11/14 04:48:15;;;;;;;2.25;1.60;;;;;;;;;;5042061;28;20498;-44
2022/11/14 04:50:41;;;;;;;2.30;1.63;;;;;;;;;;5049543;28;20049;-44
2022/11/14 04:53:07;;;;;;;2.13;1.80;;;;;;;;;;5034198;28;20028;-44
2022/11/14 04:55:33;;;;;;;2.28;1.70;;;;;;;;;;5049504;28;20025;-45
2022/11/14 04:57:59;;;;;;;1.77;1.50;;;;;;;;;;5050799;28;20355;-44
2022/11/14 05:00:25;;;;;;;2.15;1.60;;;;;;;;;;5052101;28;20040;-44
2022/11/14 05:02:51;;;;;;;2.90;1.98;;;;;;;;;;5053832;28;20151;-44
2022/11/14 05:05:17;;;;;;;1.63;1.48;;;;;;;;;;5045324;28;20044;-44
2022/11/14 05:07:43;;;;;;;1.98;1.52;;;;;;;;;;5034387;28;20189;-44
2022/11/14 05:10:09;;;;;;;1.90;1.45;;;;;;;;;;5050364;28;20033;-44
2022/11/14 05:12:35;;;;;;;1.70;1.42;;;;;;;;;;5051503;28;20474;-44
2022/11/14 05:15:01;;;;;;;2.13;1.45;;;;;;;;;;5044477;28;20025;-46
2022/11/14 05:17:27;;;;;;;2.28;1.70;;;;;;;;;;5041060;28;20021;-44
2022/11/14 05:19:53;;;;;;;2.65;1.70;;;;;;;;;;5047222;28;20059;-44
2022/11/14 05:22:19;;;;;;;2.05;1.60;;;;;;;;;;5061646;28;20025;-44
2022/11/14 05:24:45;;;;;;;2.83;2.40;;;;;;;;;;5062219;28;20016;-44
2022/11/14 05:27:11;;;;;;;1.70;1.33;;;;;;;;;;5061844;28;20029;-44
2022/11/14 05:29:37;;;;;;;2.65;1.52;;;;;;;;;;5060721;28;20028;-44
2022/11/14 05:32:03;;;;;;;1.88;1.67;;;;;;;;;;5063455;28;20088;-44
2022/11/14 05:34:29;;;;;;;2.17;1.55;;;;;;;;;;5060900;28;20463;-49
2022/11/14 05:36:55;;;;;;;2.63;1.92;;;;;;;;;;5061461;28;20019;-44
2022/11/14 05:39:21;;;;;;;2.67;1.58;;;;;;;;;;5062842;28;20041;-44
2022/11/14 05:41:47;;;;;;;1.63;1.52;;;;;;;;;;5057473;28;20021;-43
2022/11/14 05:44:13;;;;;;;1.70;1.52;;;;;;;;;;5062167;28;20112;-45
2022/11/14 05:46:39;;;;;;;2.25;1.60;;;;;;;;;;5061703;28;20049;-43
2022/11/14 05:49:05;;;;;;;1.98;1.77;;;;;;;;;;5060950;28;20013;-44
2022/11/14 05:51:31;;;;;;;2.45;1.70;;;;;;;;;;5060354;28;20029;-49
2022/11/14 05:53:57;;;;;;;1.60;1.33;;;;;;;;;;5057046;28;20025;-44
2022/11/14 05:56:23;;;;;;;1.70;1.48;;;;;;;;;;5057650;28;20104;-44
2022/11/14 05:58:49;;;;;;;2.63;1.90;;;;;;;;;;5057434;28;20583;-44
2022/11/14 06:01:16;;;;;;;2.13;1.60;;;;;;;;;;5060731;28;20021;-44
2022/11/14 06:03:44;;;;;;;2.33;1.70;;;;;;;;;;5060107;28;20063;-44
2022/11/14 06:06:11;;;;;;;1.73;1.50;;;;;;;;;;5062392;28;20020;-44
2022/11/14 06:08:37;;;;;;;1.92;1.55;;;;;;;;;;5060718;28;20186;-44
2022/11/14 06:11:08;;;;;;;2.50;1.70;;;;;;;;;;5056476;28;20471;-44
2022/11/14 06:13:34;;;;;;;2.42;1.60;;;;;;;;;;5051608;28;20055;-44
2022/11/14 06:16:01;;;;;;;1.60;1.40;;;;;;;;;;5052974;28;20092;-44
2022/11/14 06:18:28;;;;;;;2.20;1.60;;;;;;;;;;5053363;28;20033;-45
2022/11/14 06:20:58;;;;;;;2.03;1.75;;;;;;;;;;5051452;28;20049;-44
2022/11/14 06:23:24;;;;;;;1.90;1.70;;;;;;;;;;5050027;28;20025;-44
2022/11/14 06:25:49;;;;;;;3.22;1.88;;;;;;;;;;5045373;28;20101;-44
2022/11/14 06:28:15;;;;;;;1.90;1.52;;;;;;;;;;5053062;28;20023;-44
2022/11/14 06:30:41;;;;;;;3.20;2.15;;;;;;;;;;5042945;28;20032;-44
2022/11/14 06:33:07;;;;;;;2.20;1.80;;;;;;;;;;5052924;28;20494;-44
2022/11/14 06:35:34;;;;;;;6.75;1.75;;;;;;;;;;5051704;28;20020;-44
2022/11/14 06:38:00;;;;;;;2.80;1.52;;;;;;;;;;5052959;28;20045;-44
2022/11/14 06:40:26;;;;;;;6.13;1.83;;;;;;;;;;5052037;28;20029;-44
2022/11/14 06:42:54;;;;;;;3.55;1.80;;;;;;;;;;5052101;28;20463;-44
2022/11/14 06:45:20;;;;;;;5.32;1.85;;;;;;;;;;5052346;28;20051;-44
2022/11/14 06:47:46;;;;;;;3.17;1.75;;;;;;;;;;5038962;28;20061;-44
2022/11/14 06:50:12;;;;;;;2.03;1.83;;;;;;;;;;5048434;28;20037;-43
2022/11/14 06:52:38;;;;;;;4.75;1.60;;;;;;;;;;5035370;28;20024;-44
2022/11/14 06:55:05;;;;;;;3.78;1.98;;;;;;;;;;5051994;28;20467;-43
2022/11/14 06:57:31;;;;;;;4.53;2.72;;;;;;;;;;5051837;28;20029;-49
2022/11/14 06:59:57;;;;;;;5.28;2.30;;;;;;;;;;5051559;28;20043;-44
2022/11/14 07:02:23;;;;;;;4.65;2.42;;;;;;;;;;5052264;28;20021;-45
2022/11/14 07:04:49;;;;;;;3.60;1.92;;;;;;;;;;5042537;28;20574;-43
2022/11/14 07:07:15;;;;;;;8.88;2.25;;;;;;;;;;5052479;28;20021;-45
2022/11/14 07:09:41;;;;;;;8.65;2.00;;;;;;;;;;5050969;28;20025;-43
2022/11/14 07:12:07;;;;;;;5.85;1.90;;;;;;;;;;5052425;28;20082;-43
2022/11/14 07:14:33;;;;;;;4.97;2.03;;;;;;;;;;5050784;28;20055;-48
2022/11/14 07:16:59;;;;;;;2.22;1.50;;;;;;;;;;5038396;28;20052;-44
2022/11/14 07:19:25;;;;;;;2.72;2.08;;;;;;;;;;5051592;28;20079;-44
2022/11/14 07:21:51;;;;;;;7.90;2.22;;;;;;;;;;5037381;28;20494;-44
2022/11/14 07:24:17;;;;;;;5.60;2.22;;;;;;;;;;5039159;28;20025;-44
2022/11/14 07:26:45;;;;;;;4.78;1.60;;;;;;;;;;5035907;28;20025;-44
2022/11/14 07:29:11;;;;;;;3.92;1.90;;;;;;;;;;5032386;28;20029;-44
2022/11/14 07:31:37;;;;;;;3.90;1.50;;;;;;;;;;5030773;28;20115;-44
2022/11/14 07:34:04;;;;;;;5.00;1.70;;;;;;;;;;5046764;28;20116;-44
2022/11/14 07:36:30;;;;;;;3.75;1.90;;;;;;;;;;5050332;28;20470;-49
2022/11/14 07:38:56;;;;;;;3.50;1.80;;;;;;;;;;5042687;28;20033;-44
2022/11/14 07:41:22;;;;;;;3.45;1.80;;;;;;;;;;5039060;28;20075;-44
2022/11/14 07:43:48;;;;;;;2.53;1.75;;;;;;;;;;5043056;28;20030;-44
2022/11/14 07:46:15;;;;;;;1.92;1.60;;;;;;;;;;5050423;28;20025;-44
2022/11/14 07:48:41;;;;;;;2.17;1.55;;;;;;;;;;5035714;28;20100;-44
2022/11/14 07:51:10;;;;;;;5.97;1.80;;;;;;;;;;5050946;28;20451;-44
2022/11/14 07:53:36;;;;;;;3.42;1.98;;;;;;;;;;5050586;28;20032;-44
2022/11/14 07:56:03;;;;;;;7.35;2.30;;;;;;;;;;5032687;28;20087;-44
2022/11/14 07:58:29;;;;;;;3.63;1.85;;;;;;;;;;5049307;28;20017;-49
2022/11/14 08:00:55;;;;;;;3.33;1.95;;;;;;;;;;5046627;28;20480;-44
2022/11/14 08:03:21;;;;;;;2.95;1.95;;;;;;;;;;5050963;28;20060;-45
2022/11/14 08:05:47;;;;;;;3.03;2.00;;;;;;;;;;5049477;28;20036;-44
2022/11/14 08:08:13;;;;;;;3.40;1.98;;;;;;;;;;5051057;28;20151;-45
2022/11/14 08:10:39;;;;;;;3.28;2.40;;;;;;;;;;5049255;28;20036;-44
2022/11/14 08:13:07;;;;;;;2.38;2.08;;;;;;;;;;5036988;28;20100;-44
2022/11/14 08:15:33;;;;;;;3.78;1.70;;;;;;;;;;5033806;28;20028;-44
2022/11/14 08:17:59;;;;;;;3.80;1.77;;;;;;;;;;5046220;28;20047;-44
2022/11/14 08:20:25;;;;;;;5.13;1.70;;;;;;;;;;5049759;28;20075;-44
2022/11/14 08:22:52;;;;;;;2.88;1.90;;;;;;;;;;5032206;28;20056;-45
2022/11/14 08:25:18;;;;;;;5.72;1.92;;;;;;;;;;5022647;28;20022;-43
2022/11/14 08:27:44;;;;;;;2.83;1.30;;;;;;;;;;5044172;28;20032;-44
2022/11/14 08:30:10;;;;;;;2.50;1.70;;;;;;;;;;5033968;28;20467;-44
2022/11/14 08:32:36;;;;;;;2.92;2.17;;;;;;;;;;5042561;28;20029;-44
2022/11/14 08:35:02;;;;;;;2.97;1.65;;;;;;;;;;5053678;28;20021;-45
2022/11/14 08:37:28;;;;;;;3.28;1.58;;;;;;;;;;5054789;28;20044;-46
2022/11/14 08:39:54;;;;;;;7.25;1.90;;;;;;;;;;5053470;28;20111;-44
2022/11/14 08:42:20;;;;;;;5.03;1.85;;;;;;;;;;5054633;28;20104;-44
2022/11/14 08:44:46;;;;;;;3.78;1.48;;;;;;;;;;5053466;28;20017;-44
2022/11/14 08:47:12;;;;;;;3.15;2.05;;;;;;;;;;5046092;28;20025;-44
2022/11/14 08:49:38;;;;;;;4.22;1.25;;;;;;;;;;5053554;28;20430;-44
2022/11/14 08:52:04;;;;;;;2.55;1.70;;;;;;;;;;5054721;28;20025;-44
2022/11/14 08:54:30;;;;;;;3.42;1.58;;;;;;;;;;5053676;28;20021;-49
2022/11/14 08:56:56;;;;;;;4.50;1.50;;;;;;;;;;5054291;28;20021;-44
2022/11/14 08:59:22;;;;;;;7.18;2.40;;;;;;;;;;5054523;28;20521;-43
2022/11/14 09:01:48;;;;;;;3.33;1.60;;;;;;;;;;5053437;28;20033;-44
2022/11/14 09:04:14;;;;;;;3.60;1.40;;;;;;;;;;5037522;28;20064;-45
2022/11/14 09:06:40;;;;;;;1.85;1.40;;;;;;;;;;5053379;28;20572;-44
2022/11/14 09:09:06;;;;;;;2.25;1.42;;;;;;;;;;5043276;28;20029;-45
2022/11/14 09:11:31;;;;;;;5.40;1.10;;;;;;;;;;5053157;28;20378;-48
2022/11/14 09:13:58;;;;;;;2.30;1.42;;;;;;;;;;5053864;28;20056;-44
2022/11/14 09:16:24;;;;;;;2.70;1.40;;;;;;;;;;5040027;28;20448;-45
2022/11/14 09:18:50;;;;;;;3.22;1.38;;;;;;;;;;5053334;28;20493;-44
2022/11/14 09:21:16;;;;;;;2.65;1.48;;;;;;;;;;5044529;28;20033;-44
2022/11/14 09:23:42;;;;;;;2.05;1.33;;;;;;;;;;5047840;28;20516;-44
2022/11/14 09:26:08;;;;;;;2.60;1.38;;;;;;;;;;5049466;28;20025;-44
2022/11/14 09:28:35;;;;;;;3.88;1.42;;;;;;;;;;5037617;28;20032;-44
2022/11/14 09:31:02;;;;;;;1.58;1.08;;;;;;;;;;5053238;28;20132;-44
2022/11/14 09:33:28;;;;;;;2.08;1.02;;;;;;;;;;5054232;28;20025;-48
2022/11/14 09:35:58;;;;;;;3.20;1.27;;;;;;;;;;5041864;28;20030;-44
2022/11/14 09:38:24;;;;;;;1.60;1.20;;;;;;;;;;5046801;28;20383;-44
2022/11/14 09:41:01;;;;;;;2.40;1.42;;;;;;;;;;5052333;28;20295;-43
2022/11/14 09:43:46;;;;;;;2.80;1.20;;;;;;;;;;5034753;28;20079;-44
2022/11/14 09:46:32;;;;;;;2.13;1.13;;;;;;;;;;5052416;28;20151;-45
2022/11/14 09:48:58;;;;;;;1.77;1.27;;;;;;;;;;5045399;28;20029;-44
2022/11/14 09:51:29;;;;;;;1.85;1.08;;;;;;;;;;5042686;28;20017;-44
2022/11/14 09:54:01;;;;;;;4.07;1.63;;;;;;;;;;5046287;28;20022;-43
2022/11/14 09:56:27;;;;;;;4.28;1.20;;;;;;;;;;5039300;28;20033;-43
2022/11/14 09:58:56;;;;;;;2.38;1.13;;;;;;;;;;5052564;28;20382;-43
2022/11/14 10:01:37;;;;;;;1.75;1.13;;;;;;;;;;5046158;28;20049;-44
2022/11/14 10:04:18;;;;;;;2.92;0.88;;;;;;;;;;5043346;28;20035;-43
2022/11/14 10:06:59;;;;;;;1.25;0.88;;;;;;;;;;5037926;28;20032;-43
2022/11/14 10:09:25;;;;;;;1.70;1.23;;;;;;;;;;5025504;28;20037;-44
2022/11/14 10:11:55;;;;;;;1.30;0.98;;;;;;;;;;5031821;28;20168;-45
2022/11/14 10:14:27;;;;;;;2.35;1.15;;;;;;;;;;5033900;28;20091;-44
2022/11/14 10:16:59;;;;;;;1.83;1.00;;;;;;;;;;5035273;28;20032;-43
2022/11/14 10:19:37;;;;;;;2.28;1.30;;;;;;;;;;5050885;28;20049;-44
2022/11/14 10:22:22;;;;;;;2.20;1.40;;;;;;;;;;5050930;28;20040;-44
2022/11/14 10:24:48;;;;;;;2.17;1.30;;;;;;;;;;5043032;28;20083;-43
2022/11/14 10:27:33;;;;;;;3.00;1.20;;;;;;;;;;5060670;28;20028;-45
2022/11/14 10:29:59;;;;;;;2.75;1.10;;;;;;;;;;5047700;28;20074;-44
2022/11/14 10:32:25;;;;;;;1.25;1.00;;;;;;;;;;5053952;28;20017;-44
2022/11/14 10:34:55;;;;;;;2.00;1.50;;;;;;;;;;5053321;28;20017;-43
2022/11/14 10:37:21;;;;;;;2.45;1.35;;;;;;;;;;5052892;28;20110;-43
2022/11/14 10:39:52;;;;;;;2.35;1.00;;;;;;;;;;5051372;28;20113;-44
2022/11/14 10:42:33;;;;;;;3.38;1.20;;;;;;;;;;5052390;28;20028;-43
2022/11/14 10:45:17;;;;;;;2.53;1.27;;;;;;;;;;5051928;28;20094;-45
2022/11/14 10:47:48;;;;;;;1.33;1.00;;;;;;;;;;5049437;28;20474;-44
2022/11/14 10:50:34;;;;;;;1.52;0.88;;;;;;;;;;5060573;28;20036;-44
2022/11/14 10:53:01;;;;;;;2.22;1.30;;;;;;;;;;5042594;28;20029;-44
2022/11/14 10:55:27;;;;;;;2.13;0.82;;;;;;;;;;5050905;28;20040;-43
2022/11/14 10:57:53;;;;;;;2.15;1.00;;;;;;;;;;5050352;28;20036;-44
2022/11/14 11:00:21;;;;;;;2.97;1.10;;;;;;;;;;5055240;28;20033;-44
2022/11/14 11:02:50;;;;;;;1.35;1.02;;;;;;;;;;5043134;28;20347;-44
2022/11/14 11:05:17;;;;;;;1.98;1.20;;;;;;;;;;5051705;28;20021;-44
2022/11/14 11:13:27;;;;;;;5.22;1.13;;;;;;;;;;5060314;28;20078;-44
2022/11/14 11:15:55;;;;;;;1.55;0.90;;;;;;;;;;5050658;28;20371;-45
2022/11/14 11:18:21;;;;;;;1.58;1.08;;;;;;;;;;5050694;28;20500;-44
2022/11/14 11:21:00;;;;;;;1.08;0.90;;;;;;;;;;5034734;28;20076;-43
2022/11/14 11:23:27;;;;;;;2.67;0.90;;;;;;;;;;5048802;28;20025;-45
2022/11/14 11:26:04;;;;;;;2.90;1.10;;;;;;;;;;5043866;28;20021;-46
2022/11/14 11:28:32;;;;;;;3.55;1.20;;;;;;;;;;5048702;28;20410;-49
2022/11/14 11:30:59;;;;;;;1.70;1.00;;;;;;;;;;5051275;28;20056;-45
2022/11/14 11:33:25;;;;;;;2.40;1.50;;;;;;;;;;5048562;28;20048;-44
2022/11/14 11:35:54;;;;;;;2.03;1.00;;;;;;;;;;5036927;28;20017;-46
2022/11/14 11:38:21;;;;;;;3.10;0.88;;;;;;;;;;5049022;28;20021;-45
2022/11/14 11:40:50;;;;;;;1.60;1.00;;;;;;;;;;5050367;28;20025;-44
2022/11/14 11:43:35;;;;;;;4.47;0.98;;;;;;;;;;5051078;28;20102;-44
2022/11/14 11:46:04;;;;;;;3.38;0.95;;;;;;;;;;5051508;28;20036;-44
2022/11/14 11:48:39;;;;;;;2.53;0.90;;;;;;;;;;5045211;28;20033;-49
2022/11/14 11:51:06;;;;;;;3.25;1.10;;;;;;;;;;5045407;28;20013;-45
2022/11/14 11:53:38;;;;;;;2.78;1.13;;;;;;;;;;5039852;28;20017;-48
2022/11/14 11:56:06;;;;;;;1.75;1.00;;;;;;;;;;5038746;28;20095;-44
2022/11/14 11:58:37;;;;;;;1.95;1.00;;;;;;;;;;5032003;28;20032;-48
2022/11/14 12:01:03;;;;;;;2.05;1.15;;;;;;;;;;5050775;28;20044;-44
2022/11/14 12:03:29;;;;;;;3.30;1.10;;;;;;;;;;5037697;28;20438;-49
2022/11/14 12:05:55;;;;;;;4.45;1.40;;;;;;;;;;5042692;28;20089;-44
2022/11/14 12:08:30;;;;;;;2.58;1.05;;;;;;;;;;5047954;28;20382;-44
2022/11/14 12:10:57;;;;;;;3.00;1.40;;;;;;;;;;5042102;28;20075;-44
2022/11/14 12:13:43;;;;;;;2.33;1.08;;;;;;;;;;5050799;28;20025;-44
2022/11/14 12:16:13;;;;;;;1.95;1.00;;;;;;;;;;4977624;28;20083;-45
2022/11/14 12:18:45;;;;;;;3.72;0.90;;;;;;;;;;5017323;28;20032;-44
2022/11/14 12:21:31;;;;;;;1.88;0.90;;;;;;;;;;5050266;28;20482;-44
2022/11/14 12:24:03;;;;;;;1.33;1.00;;;;;;;;;;4967227;28;20042;-43
2022/11/14 12:26:35;;;;;;;1.52;1.00;;;;;;;;;;5015783;28;20026;-48
2022/11/14 12:29:15;;;;;;;1.55;0.93;;;;;;;;;;5027453;28;20025;-44
2022/11/14 12:31:41;;;;;;;2.00;1.17;;;;;;;;;;5034219;28;20025;-43
2022/11/14 12:34:15;;;;;;;2.55;1.10;;;;;;;;;;5050827;28;20466;-44
2022/11/14 12:36:42;;;;;;;3.28;0.85;;;;;;;;;;5049282;28;20017;-43
2022/11/14 12:39:20;;;;;;;1.33;1.00;;;;;;;;;;5051003;28;20068;-43
2022/11/14 12:41:46;;;;;;;2.05;1.00;;;;;;;;;;5030421;28;20371;-44
2022/11/14 12:44:31;;;;;;;2.58;1.45;;;;;;;;;;5035394;28;20509;-44
2022/11/14 12:47:02;;;;;;;2.50;1.00;;;;;;;;;;5022723;28;20056;-44
2022/11/14 12:49:47;;;;;;;1.73;0.95;;;;;;;;;;5043753;28;20111;-47
2022/11/14 12:52:31;;;;;;;3.22;1.33;;;;;;;;;;5047414;28;20029;-46
2022/11/14 12:54:57;;;;;;;2.13;1.20;;;;;;;;;;5027579;28;20039;-44
2022/11/14 12:57:47;;;;;;;2.25;0.70;;;;;;;;;;5051003;28;20455;-44
2022/11/14 13:00:13;;;;;;;1.63;0.90;;;;;;;;;;4992291;28;20047;-46
2022/11/14 13:02:48;;;;;;;3.13;0.82;;;;;;;;;;5030634;28;20025;-45
2022/11/14 13:05:19;;;;;;;2.13;1.00;;;;;;;;;;5040154;28;20471;-44
2022/11/14 13:07:44;;;;;;;3.28;1.05;;;;;;;;;;5042126;28;20074;-45
2022/11/14 13:10:15;;;;;;;1.05;0.77;;;;;;;;;;5049563;28;20025;-46
2022/11/14 13:23:49;;;;;;;1.98;0.85;;;;;;;;;;5039662;28;20399;-44
2022/11/14 13:26:14;;;;;;;1.90;0.80;;;;;;;;;;5050269;28;20027;-44
2022/11/14 13:28:48;;;;;;;1.80;1.08;;;;;;;;;;5052458;28;20592;-44
2022/11/14 13:31:14;;;;;;;1.85;1.05;;;;;;;;;;5053833;28;20017;-44
2022/11/14 13:33:45;;;;;;;1.45;1.00;;;;;;;;;;5038884;28;20079;-44
2022/11/14 13:36:15;;;;;;;2.28;1.15;;;;;;;;;;5031319;28;20057;-43
2022/11/14 13:38:41;;;;;;;3.33;1.08;;;;;;;;;;5020991;28;20037;-46
2022/11/14 13:41:26;;;;;;;2.05;0.70;;;;;;;;;;5052986;28;20021;-44
2022/11/14 13:44:01;;;;;;;3.17;1.25;;;;;;;;;;5038959;28;20485;-44
2022/11/14 13:46:53;;;;;;;1.23;0.88;;;;;;;;;;5048707;28;20041;-44
2022/11/14 13:49:28;;;;;;;2.17;1.10;;;;;;;;;;4996332;28;20047;-43
2022/11/14 13:51:55;;;;;;;1.88;1.10;;;;;;;;;;5046714;28;20032;-45
2022/11/14 13:54:20;;;;;;;2.65;0.95;;;;;;;;;;5050991;28;20485;-45
2022/11/14 13:56:52;;;;;;;1.73;1.15;;;;;;;;;;5052225;28;20032;-44
2022/11/14 13:59:21;;;;;;;1.23;0.90;;;;;;;;;;5040658;28;20044;-44
2022/11/14 14:01:54;;;;;;;2.90;1.15;;;;;;;;;;5052059;28;20463;-45
2022/11/14 14:04:22;;;;;;;1.30;0.82;;;;;;;;;;5052866;28;20029;-44
2022/11/14 14:07:00;;;;;;;1.10;1.00;;;;;;;;;;5021910;28;20514;-44
2022/11/14 14:09:26;;;;;;;1.73;0.90;;;;;;;;;;5043183;28;20079;-44
2022/11/14 14:11:52;;;;;;;3.40;1.00;;;;;;;;;;5040489;28;20045;-45
2022/11/14 14:14:21;;;;;;;1.80;1.17;;;;;;;;;;5033336;28;20486;-43
2022/11/14 14:16:56;;;;;;;4.10;0.80;;;;;;;;;;5038038;28;20060;-44
2022/11/14 14:19:29;;;;;;;1.90;1.23;;;;;;;;;;5034510;28;20053;-44
2022/11/14 14:21:59;;;;;;;3.22;1.25;;;;;;;;;;5049065;28;20025;-44
2022/11/14 14:24:31;;;;;;;2.05;0.93;;;;;;;;;;5041460;28;20025;-45
2022/11/14 14:27:00;;;;;;;1.92;0.90;;;;;;;;;;5043809;28;20482;-44
2022/11/14 14:29:40;;;;;;;2.20;0.93;;;;;;;;;;5051685;28;20040;-44
2022/11/14 14:32:13;;;;;;;1.42;1.23;;;;;;;;;;5048621;28;20021;-43
2022/11/14 14:34:40;;;;;;;2.78;1.35;;;;;;;;;;5041191;28;20017;-44
2022/11/14 14:37:26;;;;;;;3.55;1.15;;;;;;;;;;5052904;28;20028;-44
2022/11/14 14:40:00;;;;;;;2.40;1.10;;;;;;;;;;5050875;28;20041;-44
2022/11/14 14:42:27;;;;;;;1.90;0.88;;;;;;;;;;5050621;28;20420;-43
2022/11/14 14:44:53;;;;;;;1.92;1.00;;;;;;;;;;5036704;28;20052;-45
2022/11/14 14:47:31;;;;;;;2.53;1.40;;;;;;;;;;5052530;28;20100;-44
2022/11/14 14:49:57;;;;;;;1.67;0.95;;;;;;;;;;5042706;28;20108;-44
2022/11/14 14:52:31;;;;;;;1.55;1.00;;;;;;;;;;5050494;28;20032;-47
2022/11/14 14:54:57;;;;;;;1.48;0.95;;;;;;;;;;5046951;28;20036;-45
2022/11/14 14:57:23;;;;;;;2.03;1.17;;;;;;;;;;5052376;28;20029;-44
2022/11/14 15:00:04;;;;;;;3.40;1.20;;;;;;;;;;5045734;28;20025;-44
2022/11/14 15:02:31;;;;;;;2.55;0.90;;;;;;;;;;5050686;28;20028;-50
2022/11/14 15:04:58;;;;;;;1.85;0.95;;;;;;;;;;5051226;28;20051;-45